sensor_id;sensor_type;location;lat;lon;timestamp;pressure;altitude;pressure_sealevel;temperature;humidity
77737;BME280;66903;59.926;30.404;2024-03-08T00:04:07;101912.34;;;5.27;51.58
77737;BME280;66903;59.926;30.404;2024-03-08T00:09:18;101917.00;;;5.27;51.81
77737;BME280;66903;59.926;30.404;2024-03-08T00:14:30;101921.38;;;5.29;52.46
77737;BME280;66903;59.926;30.404;2024-03-08T00:19:41;101879.22;;;5.08;52.41
77737;BME280;66903;59.926;30.404;2024-03-08T00:24:52;101872.44;;;5.20;52.18
77737;BME280;66903;59.926;30.404;2024-03-08T00:30:03;101885.78;;;5.34;51.59
77737;BME280;66903;59.926;30.404;2024-03-08T00:35:17;101905.56;;;5.39;52.17
77737;BME280;66903;59.926;30.404;2024-03-08T00:40:28;101906.13;;;5.43;52.35
77737;BME280;66903;59.926;30.404;2024-03-08T00:45:39;101901.22;;;5.37;52.20
77737;BME280;66903;59.926;30.404;2024-03-08T00:50:53;101875.31;;;5.28;52.31
77737;BME280;66903;59.926;30.404;2024-03-08T00:56:04;101918.50;;;5.48;52.51
77737;BME280;66903;59.926;30.404;2024-03-08T01:01:15;101879.44;;;5.24;52.38
77737;BME280;66903;59.926;30.404;2024-03-08T01:06:29;101900.09;;;5.30;52.42
77737;BME280;66903;59.926;30.404;2024-03-08T01:11:40;101903.63;;;5.22;53.07
77737;BME280;66903;59.926;30.404;2024-03-08T01:16:51;101896.47;;;5.29;52.52
77737;BME280;66903;59.926;30.404;2024-03-08T01:22:02;101885.78;;;5.34;52.79
77737;BME280;66903;59.926;30.404;2024-03-08T01:27:14;101893.06;;;5.35;52.66
77737;BME280;66903;59.926;30.404;2024-03-08T01:32:25;101863.97;;;5.22;53.00
77737;BME280;66903;59.926;30.404;2024-03-08T01:37:36;101898.88;;;5.42;52.99
77737;BME280;66903;59.926;30.404;2024-03-08T01:42:47;101884.13;;;5.41;53.31
77737;BME280;66903;59.926;30.404;2024-03-08T01:47:59;101885.72;;;5.44;52.54
77737;BME280;66903;59.926;30.404;2024-03-08T01:53:10;101870.88;;;5.35;53.13
77737;BME280;66903;59.926;30.404;2024-03-08T01:58:22;101860.69;;;5.36;52.86
77737;BME280;66903;59.926;30.404;2024-03-08T02:03:33;101871.25;;;5.50;52.71
77737;BME280;66903;59.926;30.404;2024-03-08T02:08:45;101851.13;;;5.48;52.94
77737;BME280;66903;59.926;30.404;2024-03-08T02:13:56;101896.53;;;5.82;52.63
77737;BME280;66903;59.926;30.404;2024-03-08T02:19:07;101892.00;;;5.81;53.00
77737;BME280;66903;59.926;30.404;2024-03-08T02:24:20;101881.75;;;5.74;52.63
77737;BME280;66903;59.926;30.404;2024-03-08T02:29:33;101874.13;;;5.76;53.12
77737;BME280;66903;59.926;30.404;2024-03-08T02:34:45;101889.94;;;5.93;52.93
77737;BME280;66903;59.926;30.404;2024-03-08T02:39:56;101867.53;;;5.86;52.85
77737;BME280;66903;59.926;30.404;2024-03-08T02:45:07;101866.81;;;5.84;52.76
77737;BME280;66903;59.926;30.404;2024-03-08T02:50:20;101892.59;;;6.02;52.83
77737;BME280;66903;59.926;30.404;2024-03-08T02:55:33;101847.81;;;5.80;53.12
77737;BME280;66903;59.926;30.404;2024-03-08T03:00:46;101872.81;;;5.97;52.83
77737;BME280;66903;59.926;30.404;2024-03-08T03:05:57;101886.50;;;5.99;52.89
77737;BME280;66903;59.926;30.404;2024-03-08T03:11:08;101901.09;;;6.01;52.88
77737;BME280;66903;59.926;30.404;2024-03-08T03:16:19;101868.38;;;5.87;52.58
77737;BME280;66903;59.926;30.404;2024-03-08T03:21:31;101892.47;;;5.86;52.68
77737;BME280;66903;59.926;30.404;2024-03-08T03:26:42;101864.19;;;5.83;53.30
77737;BME280;66903;59.926;30.404;2024-03-08T03:31:54;101899.81;;;5.95;53.03
77737;BME280;66903;59.926;30.404;2024-03-08T03:37:05;101857.94;;;5.53;53.12
77737;BME280;66903;59.926;30.404;2024-03-08T03:42:22;101872.59;;;5.63;52.83
77737;BME280;66903;59.926;30.404;2024-03-08T03:47:35;101892.81;;;5.74;53.61
77737;BME280;66903;59.926;30.404;2024-03-08T03:52:47;101891.78;;;5.75;52.93
77737;BME280;66903;59.926;30.404;2024-03-08T03:57:57;101869.81;;;5.63;53.21
77737;BME280;66903;59.926;30.404;2024-03-08T04:03:09;101910.53;;;5.63;53.18
77737;BME280;66903;59.926;30.404;2024-03-08T04:08:20;101881.69;;;5.38;53.07
77737;BME280;66903;59.926;30.404;2024-03-08T04:13:31;101878.78;;;5.30;53.28
77737;BME280;66903;59.926;30.404;2024-03-08T04:18:42;101895.06;;;5.43;53.41
77737;BME280;66903;59.926;30.404;2024-03-08T04:23:53;101866.75;;;5.49;54.05
77737;BME280;66903;59.926;30.404;2024-03-08T04:29:04;101898.03;;;5.77;53.33
77737;BME280;66903;59.926;30.404;2024-03-08T04:34:15;101907.69;;;5.73;53.23
77737;BME280;66903;59.926;30.404;2024-03-08T04:39:26;101873.31;;;5.65;53.55
77737;BME280;66903;59.926;30.404;2024-03-08T04:44:41;101891.63;;;5.76;53.53
77737;BME280;66903;59.926;30.404;2024-03-08T04:49:52;101876.91;;;5.76;52.91
77737;BME280;66903;59.926;30.404;2024-03-08T04:55:05;101883.69;;;5.81;53.27
77737;BME280;66903;59.926;30.404;2024-03-08T05:00:17;101914.16;;;5.91;53.09
77737;BME280;66903;59.926;30.404;2024-03-08T05:05:28;101903.84;;;6.01;53.06
77737;BME280;66903;59.926;30.404;2024-03-08T05:10:39;101903.97;;;6.09;52.78
77737;BME280;66903;59.926;30.404;2024-03-08T05:15:50;101916.16;;;6.16;53.03
77737;BME280;66903;59.926;30.404;2024-03-08T05:21:01;101883.44;;;6.02;53.14
77737;BME280;66903;59.926;30.404;2024-03-08T05:26:14;101900.69;;;6.13;52.36
77737;BME280;66903;59.926;30.404;2024-03-08T05:31:25;101919.38;;;6.11;52.51
77737;BME280;66903;59.926;30.404;2024-03-08T05:36:36;101882.78;;;5.90;52.49
77737;BME280;66903;59.926;30.404;2024-03-08T05:41:47;101890.31;;;5.98;52.68
77737;BME280;66903;59.926;30.404;2024-03-08T05:46:58;101909.78;;;6.06;52.65
77737;BME280;66903;59.926;30.404;2024-03-08T05:52:09;101927.41;;;6.32;53.18
77737;BME280;66903;59.926;30.404;2024-03-08T05:57:20;101901.03;;;6.10;52.34
77737;BME280;66903;59.926;30.404;2024-03-08T06:02:33;101936.03;;;6.11;52.17
77737;BME280;66903;59.926;30.404;2024-03-08T06:07:44;101936.19;;;6.10;52.20
77737;BME280;66903;59.926;30.404;2024-03-08T06:12:55;101945.38;;;6.10;52.69
77737;BME280;66903;59.926;30.404;2024-03-08T06:18:06;101936.69;;;6.05;52.80
77737;BME280;66903;59.926;30.404;2024-03-08T06:23:21;101934.84;;;6.14;52.72
77737;BME280;66903;59.926;30.404;2024-03-08T06:28:32;101944.06;;;6.32;52.42
77737;BME280;66903;59.926;30.404;2024-03-08T06:33:43;101955.25;;;6.48;52.20
77737;BME280;66903;59.926;30.404;2024-03-08T06:38:54;101925.88;;;6.37;51.69
77737;BME280;66903;59.926;30.404;2024-03-08T06:44:07;101958.75;;;6.50;51.85
77737;BME280;66903;59.926;30.404;2024-03-08T06:49:18;101928.72;;;6.45;51.39
77737;BME280;66903;59.926;30.404;2024-03-08T06:54:30;101960.13;;;6.89;51.50
77737;BME280;66903;59.926;30.404;2024-03-08T06:59:41;101953.25;;;6.76;50.87
77737;BME280;66903;59.926;30.404;2024-03-08T07:04:52;101960.88;;;6.99;51.16
77737;BME280;66903;59.926;30.404;2024-03-08T07:10:04;101944.78;;;7.36;51.27
77737;BME280;66903;59.926;30.404;2024-03-08T07:15:15;101932.56;;;7.63;50.10
77737;BME280;66903;59.926;30.404;2024-03-08T07:20:26;101943.50;;;7.64;49.52
77737;BME280;66903;59.926;30.404;2024-03-08T07:25:39;101964.81;;;7.98;49.84
77737;BME280;66903;59.926;30.404;2024-03-08T07:30:50;101934.94;;;8.08;49.30
77737;BME280;66903;59.926;30.404;2024-03-08T07:36:12;101972.94;;;8.49;48.99
77737;BME280;66903;59.926;30.404;2024-03-08T07:41:23;101960.22;;;8.86;48.73
77737;BME280;66903;59.926;30.404;2024-03-08T07:46:34;101972.94;;;8.97;48.16
77737;BME280;66903;59.926;30.404;2024-03-08T07:51:45;101986.34;;;8.85;47.81
77737;BME280;66903;59.926;30.404;2024-03-08T07:56:56;101986.88;;;8.65;48.01
77737;BME280;66903;59.926;30.404;2024-03-08T08:02:07;101985.16;;;8.72;48.31
77737;BME280;66903;59.926;30.404;2024-03-08T08:07:18;101976.59;;;8.81;48.06
77737;BME280;66903;59.926;30.404;2024-03-08T08:12:29;101959.38;;;8.70;47.34
77737;BME280;66903;59.926;30.404;2024-03-08T08:17:44;101965.81;;;8.30;47.70
77737;BME280;66903;59.926;30.404;2024-03-08T08:22:55;101960.50;;;8.11;48.83
77737;BME280;66903;59.926;30.404;2024-03-08T08:28:06;101973.56;;;8.19;48.88
77737;BME280;66903;59.926;30.404;2024-03-08T08:33:17;101960.50;;;8.11;48.69
77737;BME280;66903;59.926;30.404;2024-03-08T08:38:28;101986.84;;;8.33;48.18
77737;BME280;66903;59.926;30.404;2024-03-08T08:43:39;101971.56;;;8.37;48.47
77737;BME280;66903;59.926;30.404;2024-03-08T08:48:54;101966.00;;;8.53;48.18
77737;BME280;66903;59.926;30.404;2024-03-08T08:54:05;101983.06;;;8.82;47.52
77737;BME280;66903;59.926;30.404;2024-03-08T08:59:17;101970.50;;;8.94;47.40
77737;BME280;66903;59.926;30.404;2024-03-08T09:04:30;101977.78;;;9.11;47.28
77737;BME280;66903;59.926;30.404;2024-03-08T09:09:44;101984.03;;;9.29;46.54
77737;BME280;66903;59.926;30.404;2024-03-08T09:14:56;101980.75;;;9.10;46.41
77737;BME280;66903;59.926;30.404;2024-03-08T09:20:07;101943.53;;;8.94;46.98
77737;BME280;66903;59.926;30.404;2024-03-08T09:25:25;101972.59;;;9.16;47.07
77737;BME280;66903;59.926;30.404;2024-03-08T09:30:36;101962.94;;;9.35;46.33
77737;BME280;66903;59.926;30.404;2024-03-08T09:35:48;101973.47;;;9.63;46.95
77737;BME280;66903;59.926;30.404;2024-03-08T09:40:59;101970.19;;;10.29;46.23
77737;BME280;66903;59.926;30.404;2024-03-08T09:46:12;101977.88;;;10.27;45.10
77737;BME280;66903;59.926;30.404;2024-03-08T09:51:28;101961.16;;;9.88;44.62
77737;BME280;66903;59.926;30.404;2024-03-08T09:56:40;101978.50;;;9.76;45.16
77737;BME280;66903;59.926;30.404;2024-03-08T10:01:52;101918.00;;;9.30;45.30
77737;BME280;66903;59.926;30.404;2024-03-08T10:07:07;101938.34;;;9.38;45.35
77737;BME280;66903;59.926;30.404;2024-03-08T10:12:18;101973.25;;;9.73;45.59
77737;BME280;66903;59.926;30.404;2024-03-08T10:17:29;101948.44;;;9.86;45.60
77737;BME280;66903;59.926;30.404;2024-03-08T10:22:43;101938.09;;;9.94;44.87
77737;BME280;66903;59.926;30.404;2024-03-08T10:27:55;101950.09;;;10.11;44.76
77737;BME280;66903;59.926;30.404;2024-03-08T10:33:06;101920.47;;;10.02;44.43
77737;BME280;66903;59.926;30.404;2024-03-08T10:38:20;101930.56;;;10.11;44.14
77737;BME280;66903;59.926;30.404;2024-03-08T10:48:55;101966.28;;;10.16;44.84
77737;BME280;66903;59.926;30.404;2024-03-08T10:54:10;101954.53;;;9.89;44.66
77737;BME280;66903;59.926;30.404;2024-03-08T10:59:22;101971.59;;;9.94;44.67
77737;BME280;66903;59.926;30.404;2024-03-08T11:04:37;101957.69;;;9.86;44.30
77737;BME280;66903;59.926;30.404;2024-03-08T11:09:48;101953.53;;;9.74;44.25
77737;BME280;66903;59.926;30.404;2024-03-08T11:15:00;101965.50;;;9.52;44.85
77737;BME280;66903;59.926;30.404;2024-03-08T11:20:17;101920.78;;;9.30;44.62
77737;BME280;66903;59.926;30.404;2024-03-08T11:25:40;101955.41;;;9.51;44.32
77737;BME280;66903;59.926;30.404;2024-03-08T11:36:10;101954.16;;;9.54;44.92
77737;BME280;66903;59.926;30.404;2024-03-08T11:41:27;101948.44;;;10.47;46.19
77737;BME280;66903;59.926;30.404;2024-03-08T11:46:38;101949.13;;;11.82;42.57
77737;BME280;66903;59.926;30.404;2024-03-08T11:51:53;101957.84;;;11.72;41.03
77737;BME280;66903;59.926;30.404;2024-03-08T11:57:04;101948.41;;;11.07;41.44
77737;BME280;66903;59.926;30.404;2024-03-08T12:02:15;101919.41;;;11.23;42.77
77737;BME280;66903;59.926;30.404;2024-03-08T12:07:26;101962.16;;;11.46;40.09
77737;BME280;66903;59.926;30.404;2024-03-08T12:12:39;101959.47;;;10.63;40.33
77737;BME280;66903;59.926;30.404;2024-03-08T12:17:51;101992.63;;;10.66;41.47
77737;BME280;66903;59.926;30.404;2024-03-08T12:23:02;101990.22;;;10.63;41.62
77737;BME280;66903;59.926;30.404;2024-03-08T12:28:13;101966.78;;;10.42;41.20
77737;BME280;66903;59.926;30.404;2024-03-08T12:33:25;101957.41;;;10.80;41.50
77737;BME280;66903;59.926;30.404;2024-03-08T12:38:36;101985.47;;;11.24;40.76
77737;BME280;66903;59.926;30.404;2024-03-08T12:43:48;101976.22;;;11.23;40.46
77737;BME280;66903;59.926;30.404;2024-03-08T12:49:00;101943.72;;;11.37;41.11
77737;BME280;66903;59.926;30.404;2024-03-08T12:54:11;101960.00;;;12.42;39.95
77737;BME280;66903;59.926;30.404;2024-03-08T12:59:22;101973.94;;;13.47;39.51
77737;BME280;66903;59.926;30.404;2024-03-08T13:04:34;101974.13;;;14.14;37.42
77737;BME280;66903;59.926;30.404;2024-03-08T13:09:46;101947.41;;;14.31;37.60
77737;BME280;66903;59.926;30.404;2024-03-08T13:15:00;101962.44;;;14.84;37.00
77737;BME280;66903;59.926;30.404;2024-03-08T13:20:11;101988.69;;;15.49;33.61
77737;BME280;66903;59.926;30.404;2024-03-08T13:25:27;101957.88;;;14.70;36.33
77737;BME280;66903;59.926;30.404;2024-03-08T13:30:38;101968.13;;;14.23;36.29
77737;BME280;66903;59.926;30.404;2024-03-08T13:35:49;101979.88;;;13.31;36.93
77737;BME280;66903;59.926;30.404;2024-03-08T13:41:01;102001.47;;;12.46;36.76
77737;BME280;66903;59.926;30.404;2024-03-08T13:46:13;101958.91;;;11.71;37.56
77737;BME280;66903;59.926;30.404;2024-03-08T13:51:24;101976.91;;;11.25;37.93
77737;BME280;66903;59.926;30.404;2024-03-08T13:56:36;101971.44;;;10.72;39.16
77737;BME280;66903;59.926;30.404;2024-03-08T14:01:47;101982.63;;;10.27;39.21
77737;BME280;66903;59.926;30.404;2024-03-08T14:06:59;101976.22;;;9.71;39.95
77737;BME280;66903;59.926;30.404;2024-03-08T14:12:14;101986.44;;;9.40;40.09
77737;BME280;66903;59.926;30.404;2024-03-08T14:17:26;101981.97;;;9.23;40.55
77737;BME280;66903;59.926;30.404;2024-03-08T14:22:37;101991.22;;;9.16;40.81
77737;BME280;66903;59.926;30.404;2024-03-08T14:27:49;101989.97;;;9.26;41.43
77737;BME280;66903;59.926;30.404;2024-03-08T14:33:07;102014.06;;;9.66;40.56
77737;BME280;66903;59.926;30.404;2024-03-08T14:38:21;102003.28;;;9.63;40.84
77737;BME280;66903;59.926;30.404;2024-03-08T14:43:32;102016.63;;;9.83;40.45
77737;BME280;66903;59.926;30.404;2024-03-08T14:48:44;101986.69;;;9.69;40.07
77737;BME280;66903;59.926;30.404;2024-03-08T14:53:55;102016.22;;;9.56;39.95
77737;BME280;66903;59.926;30.404;2024-03-08T14:59:06;101987.75;;;8.89;40.60
77737;BME280;66903;59.926;30.404;2024-03-08T15:04:17;101999.94;;;8.64;40.63
77737;BME280;66903;59.926;30.404;2024-03-08T15:09:29;102008.19;;;8.16;40.98
77737;BME280;66903;59.926;30.404;2024-03-08T15:14:40;102009.25;;;7.81;42.00
77737;BME280;66903;59.926;30.404;2024-03-08T15:19:54;102003.94;;;7.54;42.59
77737;BME280;66903;59.926;30.404;2024-03-08T15:25:05;101967.81;;;7.29;42.23
77737;BME280;66903;59.926;30.404;2024-03-08T15:30:16;102032.09;;;7.59;42.15
77737;BME280;66903;59.926;30.404;2024-03-08T15:35:27;101994.16;;;7.42;41.61
77737;BME280;66903;59.926;30.404;2024-03-08T15:40:38;102014.59;;;7.33;42.24
77737;BME280;66903;59.926;30.404;2024-03-08T15:45:49;102033.38;;;7.14;42.37
77737;BME280;66903;59.926;30.404;2024-03-08T15:51:04;101989.19;;;6.77;42.68
77737;BME280;66903;59.926;30.404;2024-03-08T15:56:20;102042.31;;;6.82;42.48
77737;BME280;66903;59.926;30.404;2024-03-08T16:01:34;102016.72;;;6.70;42.38
77737;BME280;66903;59.926;30.404;2024-03-08T16:06:45;102029.06;;;6.76;42.71
77737;BME280;66903;59.926;30.404;2024-03-08T16:11:57;102029.78;;;6.78;42.82
77737;BME280;66903;59.926;30.404;2024-03-08T16:17:08;102029.47;;;6.81;42.40
77737;BME280;66903;59.926;30.404;2024-03-08T16:22:20;101991.31;;;6.65;43.25
77737;BME280;66903;59.926;30.404;2024-03-08T16:27:31;102023.75;;;6.83;42.92
77737;BME280;66903;59.926;30.404;2024-03-08T16:32:44;102039.59;;;6.90;43.13
77737;BME280;66903;59.926;30.404;2024-03-08T16:37:58;101997.44;;;6.69;43.41
77737;BME280;66903;59.926;30.404;2024-03-08T16:43:09;102037.53;;;6.92;42.79
77737;BME280;66903;59.926;30.404;2024-03-08T16:48:22;102036.97;;;6.89;42.86
77737;BME280;66903;59.926;30.404;2024-03-08T16:53:35;102043.09;;;6.92;42.98
77737;BME280;66903;59.926;30.404;2024-03-08T16:58:51;102008.06;;;6.73;42.89
77737;BME280;66903;59.926;30.404;2024-03-08T17:04:02;102041.13;;;6.85;43.10
77737;BME280;66903;59.926;30.404;2024-03-08T17:09:14;102050.81;;;6.81;43.10
77737;BME280;66903;59.926;30.404;2024-03-08T17:14:25;102040.44;;;6.65;42.88
77737;BME280;66903;59.926;30.404;2024-03-08T17:19:38;102038.50;;;6.65;43.28
77737;BME280;66903;59.926;30.404;2024-03-08T17:24:50;102007.31;;;6.46;43.89
77737;BME280;66903;59.926;30.404;2024-03-08T17:30:02;102015.13;;;6.50;43.07
77737;BME280;66903;59.926;30.404;2024-03-08T17:35:27;102020.91;;;6.57;43.39
77737;BME280;66903;59.926;30.404;2024-03-08T17:40:40;102010.75;;;6.48;43.38
77737;BME280;66903;59.926;30.404;2024-03-08T17:45:52;102022.50;;;6.42;43.20
77737;BME280;66903;59.926;30.404;2024-03-08T17:51:04;102040.66;;;6.36;43.71
77737;BME280;66903;59.926;30.404;2024-03-08T17:56:15;101995.88;;;6.14;43.97
77737;BME280;66903;59.926;30.404;2024-03-08T18:01:26;102063.19;;;6.51;42.93
77737;BME280;66903;59.926;30.404;2024-03-08T18:06:37;102065.69;;;6.44;43.18
77737;BME280;66903;59.926;30.404;2024-03-08T18:11:51;102033.13;;;6.29;43.36
77737;BME280;66903;59.926;30.404;2024-03-08T18:17:05;102042.72;;;6.34;43.52
77737;BME280;66903;59.926;30.404;2024-03-08T18:22:16;102029.22;;;6.22;43.50
77737;BME280;66903;59.926;30.404;2024-03-08T18:27:27;102045.25;;;6.28;43.41
77737;BME280;66903;59.926;30.404;2024-03-08T18:32:39;102044.53;;;6.26;43.87
77737;BME280;66903;59.926;30.404;2024-03-08T18:37:49;102023.38;;;6.07;43.65
77737;BME280;66903;59.926;30.404;2024-03-08T18:43:01;102057.28;;;6.19;43.71
77737;BME280;66903;59.926;30.404;2024-03-08T18:48:12;102052.25;;;6.05;43.33
77737;BME280;66903;59.926;30.404;2024-03-08T18:53:23;102060.25;;;6.08;43.58
77737;BME280;66903;59.926;30.404;2024-03-08T18:58:35;102054.06;;;5.96;43.80
77737;BME280;66903;59.926;30.404;2024-03-08T19:03:46;102052.63;;;5.92;43.34
77737;BME280;66903;59.926;30.404;2024-03-08T19:08:58;102053.53;;;5.83;44.32
77737;BME280;66903;59.926;30.404;2024-03-08T19:14:09;102055.31;;;5.75;43.71
77737;BME280;66903;59.926;30.404;2024-03-08T19:19:21;102066.63;;;5.54;44.04
77737;BME280;66903;59.926;30.404;2024-03-08T19:24:33;102048.16;;;5.35;43.36
77737;BME280;66903;59.926;30.404;2024-03-08T19:29:45;102083.63;;;5.22;44.72
77737;BME280;66903;59.926;30.404;2024-03-08T19:34:56;102015.13;;;4.69;44.60
77737;BME280;66903;59.926;30.404;2024-03-08T19:40:18;102043.50;;;4.51;44.94
77737;BME280;66903;59.926;30.404;2024-03-08T19:45:39;102071.88;;;4.53;45.37
77737;BME280;66903;59.926;30.404;2024-03-08T19:50:50;102050.31;;;4.28;45.16
77737;BME280;66903;59.926;30.404;2024-03-08T19:56:01;102065.75;;;4.31;45.03
77737;BME280;66903;59.926;30.404;2024-03-08T20:01:12;102066.31;;;4.25;45.46
77737;BME280;66903;59.926;30.404;2024-03-08T20:06:25;102024.84;;;4.06;45.84
77737;BME280;66903;59.926;30.404;2024-03-08T20:11:36;102082.78;;;4.36;45.77
77737;BME280;66903;59.926;30.404;2024-03-08T20:16:47;102084.38;;;4.29;45.98
77737;BME280;66903;59.926;30.404;2024-03-08T20:21:58;102077.94;;;4.09;45.52
77737;BME280;66903;59.926;30.404;2024-03-08T20:27:11;102072.13;;;4.03;45.65
77737;BME280;66903;59.926;30.404;2024-03-08T20:32:22;102083.91;;;4.14;45.74
77737;BME280;66903;59.926;30.404;2024-03-08T20:37:33;102046.09;;;4.05;45.88
77737;BME280;66903;59.926;30.404;2024-03-08T20:42:44;102078.16;;;4.36;45.63
77737;BME280;66903;59.926;30.404;2024-03-08T20:47:56;102044.19;;;4.25;45.23
77737;BME280;66903;59.926;30.404;2024-03-08T20:53:08;102063.72;;;4.42;45.24
77737;BME280;66903;59.926;30.404;2024-03-08T20:58:21;102080.63;;;4.59;45.19
77737;BME280;66903;59.926;30.404;2024-03-08T21:03:33;102069.72;;;4.57;45.10
77737;BME280;66903;59.926;30.404;2024-03-08T21:08:44;102066.06;;;4.47;45.39
77737;BME280;66903;59.926;30.404;2024-03-08T21:13:55;102039.84;;;4.32;44.96
77737;BME280;66903;59.926;30.404;2024-03-08T21:19:06;102038.41;;;4.28;45.23
77737;BME280;66903;59.926;30.404;2024-03-08T21:24:17;102093.16;;;4.43;45.64
77737;BME280;66903;59.926;30.404;2024-03-08T21:29:28;102063.56;;;4.25;45.37
77737;BME280;66903;59.926;30.404;2024-03-08T21:34:39;102052.06;;;4.20;45.92
77737;BME280;66903;59.926;30.404;2024-03-08T21:39:50;102066.19;;;4.36;45.49
77737;BME280;66903;59.926;30.404;2024-03-08T21:45:04;102058.47;;;4.20;45.50
77737;BME280;66903;59.926;30.404;2024-03-08T21:50:15;102058.16;;;4.04;45.42
77737;BME280;66903;59.926;30.404;2024-03-08T21:55:26;102045.63;;;4.00;45.92
77737;BME280;66903;59.926;30.404;2024-03-08T22:00:37;102046.94;;;4.06;45.83
77737;BME280;66903;59.926;30.404;2024-03-08T22:05:52;102043.19;;;4.07;45.78
77737;BME280;66903;59.926;30.404;2024-03-08T22:11:04;102059.91;;;4.15;45.84
77737;BME280;66903;59.926;30.404;2024-03-08T22:16:16;102052.31;;;3.98;45.67
77737;BME280;66903;59.926;30.404;2024-03-08T22:21:27;102049.38;;;3.90;45.82
77737;BME280;66903;59.926;30.404;2024-03-08T22:26:39;102039.59;;;3.67;45.78
77737;BME280;66903;59.926;30.404;2024-03-08T22:31:50;102077.81;;;3.71;45.64
77737;BME280;66903;59.926;30.404;2024-03-08T22:37:02;102073.44;;;3.69;45.50
77737;BME280;66903;59.926;30.404;2024-03-08T22:42:15;102073.63;;;3.77;45.65
77737;BME280;66903;59.926;30.404;2024-03-08T22:47:26;102040.69;;;3.55;45.94
77737;BME280;66903;59.926;30.404;2024-03-08T22:52:38;101997.97;;;3.19;45.56
77737;BME280;66903;59.926;30.404;2024-03-08T22:57:50;102078.66;;;3.62;46.15
77737;BME280;66903;59.926;30.404;2024-03-08T23:03:01;102068.72;;;3.80;46.03
77737;BME280;66903;59.926;30.404;2024-03-08T23:08:12;102044.97;;;3.78;45.57
77737;BME280;66903;59.926;30.404;2024-03-08T23:13:23;102034.81;;;3.78;45.62
77737;BME280;66903;59.926;30.404;2024-03-08T23:18:37;102046.59;;;3.90;45.81
77737;BME280;66903;59.926;30.404;2024-03-08T23:23:49;102004.38;;;3.69;45.99
77737;BME280;66903;59.926;30.404;2024-03-08T23:29:00;102076.59;;;4.04;45.64
77737;BME280;66903;59.926;30.404;2024-03-08T23:34:11;102044.00;;;3.88;45.64
77737;BME280;66903;59.926;30.404;2024-03-08T23:39:23;102064.38;;;3.97;46.06
77737;BME280;66903;59.926;30.404;2024-03-08T23:44:36;102064.06;;;3.90;45.86
77737;BME280;66903;59.926;30.404;2024-03-08T23:49:47;102039.59;;;3.76;45.87
77737;BME280;66903;59.926;30.404;2024-03-08T23:55:04;102040.34;;;3.78;45.76
